Terminal Aerodrome Forecast
Issued by NWS Paducah, KY

Home | Current Version | Previous Version | Text Only | Print | Product List | Glossary On
Versions: 1 2 3 4 5 6 7 8 9 10 11 12 13 14
000
FTUS43 KPAH 231100 RRA
TAFPAH
TAF
KPAH 231140Z 2312/2412 VRB03KT P6SM SCT150
     FM231400 24006KT P6SM VCSH SCT045 BKN150
     FM232000 33007KT P6SM BKN040
     FM240100 36006KT P6SM SCT025 BKN040=

USA.gov is the U.S. government's official web portal to all federal, state and local government web resources and services.